Time;durP1;ratioP1;P1;durP2;ratioP2;P2;SDS_P1;SDS_P2;PMS_P1;PMS_P2;Temp;Humidity;BMP_temperature;BMP_pressure;BME280_temperature;BME280_humidity;BME280_pressure;Samples;Min_cycle;Max_cycle;Signal;HPM_P1;HPM_P2
2024/01/12 00:00:24;;;;;;;16.40;9.77;;;-0.70;99.90;;;-1.14;88.76;102068.78;4838338;28;24452;-68
2024/01/12 00:02:46;;;;;;;16.70;9.20;;;-0.80;99.90;;;-1.15;89.28;102069.63;4816371;28;24484;-69
2024/01/12 00:05:08;;;;;;;16.30;9.48;;;-0.80;99.90;;;-1.22;88.84;102072.22;4836345;28;24519;-69
2024/01/12 00:07:30;;;;;;;16.48;9.63;;;-0.90;99.90;;;-1.27;88.84;102072.22;4837476;28;24467;-66
2024/01/12 00:09:52;;;;;;;16.60;10.10;;;-0.90;99.90;;;-1.26;88.56;102075.63;4837869;28;24487;-67
2024/01/12 00:12:14;;;;;;;18.13;10.40;;;-0.90;99.90;;;-1.29;88.32;102066.22;4836093;28;24814;-72
2024/01/12 00:14:36;;;;;;;16.50;10.30;;;-0.90;99.90;;;-1.25;87.69;102069.63;4840274;28;24994;-69
2024/01/12 00:16:58;;;;;;;17.20;10.13;;;-0.90;99.90;;;-1.29;88.33;102061.13;4822447;28;24425;-70
2024/01/12 00:19:20;;;;;;;17.38;10.10;;;-0.90;99.90;;;-1.35;88.68;102063.69;4836207;28;24993;-68
2024/01/12 00:21:46;;;;;;;18.35;10.10;;;-1.00;99.90;;;-1.39;88.98;102067.09;4823474;28;24470;-69
2024/01/12 00:24:08;;;;;;;16.83;10.00;;;-1.00;99.90;;;-1.37;89.32;102062.84;4836214;28;24538;-69
2024/01/12 00:26:30;;;;;;;15.98;10.10;;;-1.00;99.90;;;-1.39;89.38;102061.13;4836818;28;24818;-69
2024/01/12 00:28:52;;;;;;;15.05;9.77;;;-1.00;99.90;;;-1.40;89.34;102062.81;4837838;28;24974;-68
2024/01/12 00:31:14;;;;;;;18.40;10.20;;;-1.00;99.90;;;-1.43;89.90;102070.53;4838530;28;24934;-68
2024/01/12 00:33:36;;;;;;;17.73;10.32;;;-1.10;99.90;;;-1.47;89.40;102070.53;4836732;28;25038;-69
2024/01/12 00:35:58;;;;;;;17.88;10.73;;;-1.10;99.90;;;-1.43;89.77;102072.22;4815586;28;24991;-68
2024/01/12 00:38:20;;;;;;;17.10;10.38;;;-1.10;99.90;;;-1.39;89.20;102068.81;4844243;28;24467;-69
2024/01/12 00:40:42;;;;;;;17.90;10.68;;;-1.10;99.90;;;-1.36;89.76;102068.81;4836900;28;24483;-70
2024/01/12 00:43:04;;;;;;;16.85;9.85;;;-1.10;99.90;;;-1.31;90.28;102067.94;4819554;28;24489;-69
2024/01/12 00:45:26;;;;;;;17.75;9.60;;;-1.00;99.90;;;-1.22;90.18;102072.22;4837022;28;24507;-70
2024/01/12 00:47:48;;;;;;;17.40;9.50;;;-0.90;99.90;;;-1.16;90.48;102069.63;4834503;28;24864;-70
2024/01/12 00:50:10;;;;;;;15.60;9.30;;;-0.90;99.90;;;-1.09;90.24;102079.03;4836837;28;24525;-69
2024/01/12 00:52:33;;;;;;;16.83;9.10;;;-0.80;99.90;;;-1.11;90.22;102080.75;4835765;28;24820;-66
2024/01/12 00:54:55;;;;;;;15.55;8.20;;;-0.80;99.90;;;-1.09;90.05;102085.00;4835963;28;24898;-68
2024/01/12 00:57:16;;;;;;;15.48;8.68;;;-0.80;99.90;;;-1.04;90.50;102090.97;4836924;28;24950;-69
2024/01/12 00:59:39;;;;;;;15.55;9.00;;;-0.80;99.90;;;-0.97;90.46;102086.69;4837179;28;24424;-69
2024/01/12 01:02:01;;;;;;;15.23;8.40;;;-0.70;99.90;;;-0.94;89.94;102089.25;4839348;28;24444;-67
2024/01/12 01:04:25;;;;;;;14.80;7.80;;;-0.70;99.90;;;-0.87;89.80;102089.22;4835364;28;24460;-68
2024/01/12 01:06:47;;;;;;;14.20;8.37;;;-0.60;99.90;;;-0.84;90.32;102088.38;4836088;28;24519;-68
2024/01/12 01:09:09;;;;;;;15.07;8.57;;;-0.60;99.90;;;-0.85;90.34;102096.91;4835275;28;24467;-68
2024/01/12 01:11:31;;;;;;;13.43;8.02;;;-0.60;99.90;;;-0.77;89.96;102092.63;4819799;28;25038;-69
2024/01/12 01:13:53;;;;;;;14.30;8.40;;;-0.60;99.90;;;-0.75;90.08;102092.63;4836589;28;24425;-67
2024/01/12 01:16:15;;;;;;;17.10;8.93;;;-0.50;99.90;;;-0.72;89.96;102097.75;4837161;28;24825;-72
2024/01/12 01:18:37;;;;;;;13.43;8.32;;;-0.50;99.90;;;-0.70;90.21;102089.16;4836149;28;24440;-67
2024/01/12 01:21:00;;;;;;;14.85;8.68;;;-0.50;99.90;;;-0.68;90.26;102097.72;4844050;28;24447;-69
2024/01/12 01:23:22;;;;;;;15.77;8.70;;;-0.40;99.90;;;-0.70;90.28;102104.56;4817625;28;24454;-70
2024/01/12 01:25:44;;;;;;;14.43;8.57;;;-0.40;99.90;;;-0.68;90.26;102110.53;4836096;28;24443;-69
2024/01/12 01:28:06;;;;;;;13.10;8.02;;;-0.40;99.90;;;-0.65;90.39;102113.09;4836399;28;24829;-69
2024/01/12 01:30:29;;;;;;;16.00;9.30;;;-0.40;99.90;;;-0.59;90.58;102120.75;4848407;28;24420;-72
2024/01/12 01:32:52;;;;;;;14.85;8.50;;;-0.30;99.90;;;-0.54;90.42;102120.75;4835198;28;21714;-66
2024/01/12 01:35:16;;;;;;;13.10;8.05;;;-0.30;99.90;;;-0.50;90.63;102122.44;4836967;28;24428;-68
2024/01/12 01:37:37;;;;;;;17.00;8.90;;;-0.30;99.90;;;-0.56;91.07;102125.91;4835337;28;24452;-68
2024/01/12 01:40:02;;;;;;;14.20;8.00;;;-0.30;99.90;;;-0.54;90.95;102129.31;4819308;28;24503;-69
2024/01/12 01:42:24;;;;;;;14.00;8.57;;;-0.30;99.90;;;-0.48;91.21;102124.16;4828161;28;25027;-68
2024/01/12 01:44:46;;;;;;;15.05;8.80;;;-0.30;99.90;;;-0.40;90.89;102124.97;4843822;28;24564;-68
2024/01/12 01:47:08;;;;;;;16.52;8.73;;;-0.10;99.90;;;-0.36;91.20;102118.16;4835596;28;24453;-67
2024/01/12 01:49:30;;;;;;;14.70;8.50;;;-0.10;99.90;;;-0.36;91.04;102131.81;4840471;28;24464;-68
2024/01/12 01:51:52;;;;;;;16.65;9.25;;;-0.10;99.90;;;-0.37;91.71;102116.44;4840988;28;24441;-68
2024/01/12 01:54:15;;;;;;;15.63;9.17;;;-0.10;99.90;;;-0.31;91.61;102124.09;4839151;28;24999;-68
2024/01/12 01:56:39;;;;;;;15.52;8.90;;;-0.10;99.90;;;-0.30;91.56;102116.38;4817441;28;24437;-68
2024/01/12 01:59:01;;;;;;;16.17;9.60;;;-0.10;99.90;;;-0.24;91.47;102116.38;4834864;28;25170;-68
2024/01/12 02:01:23;;;;;;;17.20;9.57;;;0.00;99.90;;;-0.22;90.96;102116.38;4839418;28;24456;-68
2024/01/12 02:03:47;;;;;;;16.90;10.15;;;0.00;99.90;;;-0.16;90.46;102121.47;4819808;28;24448;-68
2024/01/12 02:06:10;;;;;;;18.98;10.25;;;0.10;99.90;;;-0.15;90.26;102125.75;4827994;28;25215;-68
2024/01/12 02:08:33;;;;;;;16.35;10.15;;;0.10;99.90;;;-0.13;90.14;102119.72;4804582;28;24441;-69
2024/01/12 02:10:56;;;;;;;14.90;9.80;;;0.10;99.90;;;-0.12;90.10;102115.47;4833949;28;24518;-71
2024/01/12 02:13:19;;;;;;;14.80;9.10;;;0.10;99.90;;;-0.20;90.70;102107.81;4811452;28;24520;-67
2024/01/12 02:15:41;;;;;;;19.52;10.50;;;0.10;99.90;;;-0.26;90.99;102115.53;4843655;28;24424;-68
2024/01/12 02:18:03;;;;;;;17.30;9.73;;;0.10;99.90;;;-0.22;89.97;102116.38;4818529;28;24866;-68
2024/01/12 02:20:25;;;;;;;17.02;9.82;;;0.10;99.90;;;-0.22;90.61;102122.34;4837612;28;24447;-71
2024/01/12 02:22:47;;;;;;;19.77;9.95;;;0.00;99.90;;;-0.22;89.86;102109.53;4824219;28;24522;-70
2024/01/12 02:25:10;;;;;;;17.25;10.00;;;0.00;99.90;;;-0.16;89.67;102108.63;4835079;28;24531;-71
2024/01/12 02:27:32;;;;;;;16.03;9.20;;;0.10;99.90;;;-0.18;89.55;102100.09;4817421;28;24900;-70
2024/01/12 02:29:54;;;;;;;18.80;10.25;;;0.10;99.90;;;-0.22;90.11;102101.84;4835488;28;24452;-70
2024/01/12 02:32:16;;;;;;;17.50;9.60;;;0.10;99.90;;;-0.22;89.72;102096.72;4822219;28;24479;-69
2024/01/12 02:34:39;;;;;;;14.73;8.93;;;0.00;99.90;;;-0.29;89.27;102092.44;4817780;28;24431;-69
2024/01/12 02:37:00;;;;;;;18.85;9.90;;;0.00;99.90;;;-0.32;89.45;102084.75;4834327;28;24854;-69
2024/01/12 02:39:22;;;;;;;17.00;9.45;;;-0.10;99.90;;;-0.31;88.99;102083.06;4835485;28;25044;-68
2024/01/12 02:41:44;;;;;;;17.95;9.65;;;-0.10;99.90;;;-0.34;88.54;102081.34;4841654;28;24428;-68
2024/01/12 02:44:06;;;;;;;19.58;10.30;;;-0.10;99.90;;;-0.35;89.02;102083.94;4835347;28;24790;-68
2024/01/12 02:46:28;;;;;;;20.88;11.60;;;-0.10;99.90;;;-0.43;89.32;102078.84;4841705;28;24866;-69
2024/01/12 02:48:50;;;;;;;21.88;11.88;;;-0.10;99.90;;;-0.46;89.19;102085.69;4818026;28;25008;-68
2024/01/12 02:51:12;;;;;;;24.23;11.85;;;-0.20;99.90;;;-0.52;89.26;102086.56;4838214;28;24436;-68
2024/01/12 02:53:34;;;;;;;22.67;11.63;;;-0.20;99.90;;;-0.60;89.47;102090.88;4821704;28;24507;-68
2024/01/12 02:55:56;;;;;;;24.25;12.85;;;-0.30;99.90;;;-0.64;88.94;102088.31;4837925;28;24450;-68
2024/01/12 02:58:18;;;;;;;22.25;12.18;;;-0.30;99.90;;;-0.67;88.40;102089.19;4836409;28;24440;-69
2024/01/12 03:00:40;;;;;;;26.58;14.15;;;-0.40;99.90;;;-0.81;89.23;102085.81;4820156;28;24472;-68
2024/01/12 03:03:02;;;;;;;26.58;13.73;;;-0.50;99.90;;;-0.85;88.73;102084.09;4839480;28;24848;-69
2024/01/12 03:05:25;;;;;;;27.15;12.68;;;-0.50;99.90;;;-0.87;88.34;102078.97;4838838;28;24575;-68
2024/01/12 03:07:47;;;;;;;26.03;14.53;;;-0.50;99.90;;;-0.91;88.42;102074.72;4838432;28;24521;-68
2024/01/12 03:10:09;;;;;;;27.27;14.15;;;-0.60;99.90;;;-0.94;88.08;102074.72;4845067;28;24455;-69
2024/01/12 03:12:31;;;;;;;23.67;13.52;;;-0.60;99.90;;;-0.89;87.90;102072.13;4838906;28;24482;-69
2024/01/12 03:14:53;;;;;;;27.13;14.10;;;-0.60;99.90;;;-0.88;87.76;102084.97;4800620;28;24461;-68
2024/01/12 03:17:15;;;;;;;26.77;14.60;;;-0.60;99.90;;;-0.94;88.02;102079.84;4822189;28;24424;-70
2024/01/12 03:19:37;;;;;;;29.17;14.85;;;-0.60;99.90;;;-1.04;88.08;102087.53;4821674;28;24428;-68
2024/01/12 03:21:59;;;;;;;27.83;14.90;;;-0.70;99.90;;;-1.06;88.32;102082.44;4841774;28;24455;-68
2024/01/12 03:24:21;;;;;;;28.95;15.82;;;-0.70;99.90;;;-1.02;88.46;102076.44;4838552;28;24475;-68
2024/01/12 03:26:43;;;;;;;25.60;13.43;;;-0.70;99.90;;;-1.00;88.02;102067.03;4838122;28;24510;-67
2024/01/12 03:29:05;;;;;;;24.48;13.85;;;-0.70;99.90;;;-1.10;88.21;102067.91;4837085;28;24433;-68
2024/01/12 03:31:27;;;;;;;26.07;13.90;;;-0.70;99.90;;;-1.14;89.21;102073.03;4843782;28;24826;-68
2024/01/12 03:33:49;;;;;;;27.77;14.05;;;-0.80;99.90;;;-1.15;89.03;102071.34;4837950;28;24464;-70
2024/01/12 03:36:13;;;;;;;25.02;13.40;;;-0.80;99.90;;;-1.08;88.69;102075.59;4809670;28;24978;-68
2024/01/12 03:38:35;;;;;;;26.42;13.07;;;-0.80;99.90;;;-1.04;88.25;102075.59;4839086;28;24435;-72
2024/01/12 03:40:57;;;;;;;24.25;13.07;;;-0.70;99.90;;;-1.00;88.13;102073.91;4842324;28;24801;-67
2024/01/12 03:43:19;;;;;;;24.23;13.10;;;-0.70;99.90;;;-0.97;88.26;102074.72;4845508;28;24539;-69
2024/01/12 03:45:41;;;;;;;24.42;12.88;;;-0.70;99.90;;;-0.95;87.95;102079.84;4827495;28;24449;-68
2024/01/12 03:48:04;;;;;;;24.02;14.20;;;-0.60;99.90;;;-0.97;88.18;102079.00;4837493;28;24436;-67
2024/01/12 03:50:26;;;;;;;26.08;13.75;;;-0.70;99.90;;;-0.93;88.35;102078.13;4836305;28;24483;-68
2024/01/12 03:52:48;;;;;;;25.35;14.13;;;-0.60;99.90;;;-0.91;88.28;102078.97;4838652;28;24515;-68
2024/01/12 03:55:10;;;;;;;24.95;14.63;;;-0.60;99.90;;;-0.90;88.02;102079.00;4839479;28;24503;-68
2024/01/12 03:57:32;;;;;;;24.80;14.00;;;-0.60;99.90;;;-0.89;88.28;102077.25;4838157;28;24518;-68
2024/01/12 03:59:55;;;;;;;25.30;13.18;;;-0.60;99.90;;;-0.89;88.55;102075.56;4836021;28;25485;-67
2024/01/12 04:02:18;;;;;;;24.77;14.20;;;-0.60;99.90;;;-0.85;87.79;102071.28;4837502;28;24440;-70
2024/01/12 04:04:42;;;;;;;27.05;13.30;;;-0.50;99.90;;;-0.90;88.50;102070.44;4837092;28;24800;-65
2024/01/12 04:07:04;;;;;;;23.83;12.85;;;-0.60;99.90;;;-0.90;88.45;102063.63;4836722;28;24487;-67
2024/01/12 04:09:26;;;;;;;22.83;12.65;;;-0.60;99.90;;;-0.85;88.81;102063.59;4838811;28;24440;-67
2024/01/12 04:11:48;;;;;;;25.60;13.55;;;-0.50;99.90;;;-0.85;88.53;102066.16;4822328;28;25107;-67
2024/01/12 04:14:11;;;;;;;24.98;13.18;;;-0.50;99.90;;;-0.84;88.49;102070.44;4842306;28;24626;-67
2024/01/12 04:16:32;;;;;;;25.77;14.20;;;-0.50;99.90;;;-0.86;88.66;102072.16;4837549;28;24482;-65
2024/01/12 04:18:55;;;;;;;26.65;13.60;;;-0.50;99.90;;;-0.89;88.95;102075.56;4836229;28;25036;-65
2024/01/12 04:21:17;;;;;;;23.75;13.02;;;-0.50;99.90;;;-0.90;88.45;102078.13;4841524;28;25148;-67
2024/01/12 04:23:39;;;;;;;24.90;13.90;;;-0.60;99.90;;;-0.91;89.04;102082.41;4843793;28;24451;-67
2024/01/12 04:26:01;;;;;;;27.77;13.97;;;-0.60;99.90;;;-1.01;89.14;102084.97;4838134;28;24498;-68
2024/01/12 04:28:24;;;;;;;26.10;13.00;;;-0.70;99.90;;;-1.02;89.14;102086.69;4836249;28;24437;-70
2024/01/12 04:30:45;;;;;;;23.67;12.90;;;-0.70;99.90;;;-1.02;89.60;102081.56;4838360;28;24510;-71
2024/01/12 04:33:07;;;;;;;27.33;14.13;;;-0.70;99.90;;;-1.09;90.21;102087.56;4837921;28;24822;-70
2024/01/12 04:35:30;;;;;;;25.75;12.60;;;-0.80;99.90;;;-1.08;89.97;102091.81;4836425;28;24822;-70
2024/01/12 04:37:52;;;;;;;23.65;12.68;;;-0.80;99.90;;;-1.06;89.62;102084.13;4838526;28;24727;-69
2024/01/12 04:40:14;;;;;;;27.20;13.32;;;-0.80;99.90;;;-1.06;90.03;102085.00;4836909;28;24552;-68
2024/01/12 04:42:36;;;;;;;23.92;12.60;;;-0.80;99.90;;;-1.04;89.24;102085.84;4841310;28;24424;-70
2024/01/12 04:44:58;;;;;;;25.23;12.93;;;-0.70;99.90;;;-1.02;90.08;102093.50;4835748;28;24514;-67
2024/01/12 04:47:20;;;;;;;25.05;13.60;;;-0.70;99.90;;;-1.00;90.12;102100.34;4830822;28;24862;-66
2024/01/12 04:49:42;;;;;;;25.52;12.93;;;-0.70;99.90;;;-0.95;90.04;102098.63;4832636;28;24450;-67
2024/01/12 04:52:05;;;;;;;23.35;12.50;;;-0.70;99.90;;;-0.91;90.18;102091.78;4838495;28;24436;-67
2024/01/12 04:54:27;;;;;;;22.90;11.70;;;-0.60;99.90;;;-0.85;90.05;102094.34;4836011;28;24778;-67
2024/01/12 04:56:49;;;;;;;22.27;11.75;;;-0.60;99.90;;;-0.82;90.18;102099.47;4818027;28;24477;-69
2024/01/12 04:59:11;;;;;;;19.35;10.85;;;-0.60;99.90;;;-0.80;89.58;102102.88;4838388;28;24462;-68
2024/01/12 05:01:33;;;;;;;22.27;11.98;;;-0.60;99.90;;;-0.73;89.20;102104.59;4839567;28;24957;-67
2024/01/12 05:03:55;;;;;;;23.65;12.18;;;-0.50;99.90;;;-0.69;88.93;102108.84;4836528;28;24957;-67
2024/01/12 05:06:17;;;;;;;23.75;12.40;;;-0.50;99.90;;;-0.71;89.07;102092.63;4835584;28;25004;-68
2024/01/12 05:08:39;;;;;;;19.20;11.30;;;-0.50;99.90;;;-0.73;89.17;102102.00;4837684;28;24531;-68
2024/01/12 05:11:01;;;;;;;22.25;12.30;;;-0.50;99.90;;;-0.67;89.26;102091.75;4838643;28;24474;-67
2024/01/12 05:13:23;;;;;;;21.67;12.10;;;-0.40;99.90;;;-0.61;88.96;102084.03;4836120;28;24429;-67
2024/01/12 05:15:45;;;;;;;25.30;11.68;;;-0.40;99.90;;;-0.57;89.08;102080.59;4840471;28;24509;-67
2024/01/12 05:18:07;;;;;;;22.05;11.20;;;-0.30;99.90;;;-0.51;89.18;102075.44;4836306;28;24511;-67
2024/01/12 05:20:32;;;;;;;21.90;11.60;;;-0.30;99.90;;;-0.50;89.08;102071.16;4835728;28;24548;-68
2024/01/12 05:22:54;;;;;;;20.20;11.10;;;-0.30;99.90;;;-0.46;89.06;102083.13;4842403;28;24895;-67
2024/01/12 05:25:16;;;;;;;20.65;11.27;;;-0.20;99.90;;;-0.44;88.74;102082.25;4843792;28;24953;-69
2024/01/12 05:27:38;;;;;;;21.75;11.55;;;-0.20;99.90;;;-0.42;88.59;102090.78;4836216;28;24444;-67
2024/01/12 05:30:00;;;;;;;22.27;11.73;;;-0.20;99.90;;;-0.43;88.46;102089.09;4838174;28;24428;-70
2024/01/12 05:32:25;;;;;;;22.52;11.50;;;-0.20;99.90;;;-0.42;88.25;102089.94;4834554;28;24783;-67
2024/01/12 05:34:47;;;;;;;23.35;11.73;;;-0.20;99.90;;;-0.41;88.30;102087.38;4836950;28;24948;-68
2024/01/12 05:37:09;;;;;;;22.63;11.48;;;-0.20;99.90;;;-0.40;88.71;102088.22;4835906;28;24822;-68
2024/01/12 05:39:31;;;;;;;23.23;11.55;;;-0.20;99.90;;;-0.40;88.47;102096.78;4837339;28;24498;-68
2024/01/12 05:41:53;;;;;;;22.77;11.63;;;-0.20;99.90;;;-0.37;88.80;102094.19;4842561;28;24474;-68
2024/01/12 05:44:15;;;;;;;22.25;11.38;;;-0.10;99.90;;;-0.33;88.82;102093.31;4834440;28;24815;-68
2024/01/12 05:46:40;;;;;;;20.20;11.10;;;-0.10;99.90;;;-0.30;88.37;102095.84;4818892;28;24456;-68
2024/01/12 05:49:04;;;;;;;21.20;11.52;;;-0.10;99.90;;;-0.30;88.63;102092.47;4836677;28;24471;-67
2024/01/12 05:51:26;;;;;;;24.20;11.73;;;-0.10;99.90;;;-0.29;88.59;102097.59;4835340;28;24528;-70
2024/01/12 05:53:48;;;;;;;22.08;11.27;;;-0.10;99.90;;;-0.29;88.86;102089.88;4835838;28;24989;-71
2024/01/12 05:56:10;;;;;;;23.10;11.77;;;0.00;99.90;;;-0.22;89.46;102089.00;4834436;28;24483;-70
2024/01/12 05:58:32;;;;;;;21.67;11.17;;;0.00;99.90;;;-0.19;89.27;102081.28;4840587;28;24441;-67
2024/01/12 06:00:54;;;;;;;21.45;11.43;;;0.00;99.90;;;-0.18;89.02;102090.69;4834144;28;24519;-66
2024/01/12 06:03:16;;;;;;;18.95;10.80;;;0.10;99.90;;;-0.19;89.00;102083.84;4816088;28;24480;-68
2024/01/12 06:05:39;;;;;;;21.90;11.02;;;0.10;99.90;;;-0.17;89.35;102069.28;4835190;28;24440;-67
2024/01/12 06:08:01;;;;;;;18.83;10.30;;;0.00;99.90;;;-0.19;89.26;102068.47;4839400;28;24442;-68
2024/01/12 06:10:23;;;;;;;23.20;11.15;;;0.00;99.90;;;-0.29;89.10;102071.94;4835365;28;24451;-65
2024/01/12 06:12:46;;;;;;;19.83;10.20;;;0.00;99.90;;;-0.27;89.14;102069.34;4837415;28;24519;-67
2024/01/12 06:15:08;;;;;;;21.80;10.93;;;0.00;99.90;;;-0.26;88.97;102069.38;4835613;28;24447;-69
2024/01/12 06:17:30;;;;;;;18.40;10.10;;;0.00;99.90;;;-0.22;89.84;102072.75;4835028;28;24448;-65
2024/01/12 06:19:52;;;;;;;20.75;11.00;;;0.00;99.90;;;-0.23;89.41;102071.03;4836858;28;24452;-67
2024/01/12 06:22:14;;;;;;;20.38;11.27;;;0.00;99.90;;;-0.20;89.52;102066.75;4834332;28;25121;-66
2024/01/12 06:24:36;;;;;;;20.08;10.70;;;0.00;99.90;;;-0.16;89.45;102068.44;4840793;28;24985;-68
2024/01/12 06:26:58;;;;;;;19.70;10.30;;;0.00;99.90;;;-0.18;89.40;102074.44;4838997;28;24540;-67
2024/01/12 06:29:24;;;;;;;21.00;11.10;;;0.10;99.90;;;-0.18;89.63;102071.88;4831260;28;24435;-67
2024/01/12 06:31:47;;;;;;;22.27;10.70;;;0.00;99.90;;;-0.21;89.38;102062.47;4841888;28;24423;-67
2024/01/12 06:34:09;;;;;;;21.60;10.80;;;0.00;99.90;;;-0.22;89.38;102063.34;4839218;28;24521;-69
2024/01/12 06:36:31;;;;;;;22.10;10.85;;;0.00;99.90;;;-0.21;89.71;102056.50;4821843;28;24439;-69
2024/01/12 06:38:53;;;;;;;21.80;10.93;;;0.00;99.90;;;-0.21;89.59;102065.06;4846137;28;24428;-71
2024/01/12 06:41:17;;;;;;;22.85;10.73;;;0.00;99.90;;;-0.22;89.92;102068.50;4840785;28;24523;-69
2024/01/12 06:43:39;;;;;;;22.15;10.90;;;0.00;99.90;;;-0.20;89.61;102074.47;4840295;28;24456;-68
2024/01/12 06:46:05;;;;;;;21.67;11.10;;;0.00;99.90;;;-0.18;90.27;102079.56;4838172;28;24522;-69
2024/01/12 06:48:27;;;;;;;19.00;10.00;;;0.00;99.90;;;-0.13;89.88;102085.53;4837662;28;24444;-66
2024/01/12 06:50:49;;;;;;;23.35;11.23;;;0.10;99.90;;;-0.10;89.98;102094.06;4835231;28;24440;-67
2024/01/12 06:53:14;;;;;;;22.30;11.10;;;0.10;99.90;;;-0.05;89.63;102107.75;4839075;28;24515;-67
2024/01/12 06:55:37;;;;;;;21.50;10.65;;;0.10;99.90;;;-0.09;89.15;102108.63;4838129;28;25205;-68
2024/01/12 06:57:58;;;;;;;22.52;11.18;;;0.20;99.90;;;-0.06;89.09;102105.16;4839123;28;24487;-67
2024/01/12 07:00:21;;;;;;;22.45;11.35;;;0.10;99.90;;;-0.03;89.83;102107.72;4841203;28;24990;-69
2024/01/12 07:02:43;;;;;;;23.35;10.90;;;0.20;99.90;;;0.02;89.64;102112.84;4839180;28;24437;-70
2024/01/12 07:05:05;;;;;;;19.55;10.98;;;0.20;99.90;;;0.08;89.47;102117.94;4820574;28;25255;-68
2024/01/12 07:07:27;;;;;;;20.90;10.98;;;0.20;99.90;;;0.09;89.28;102115.34;4838170;28;25213;-67
2024/01/12 07:09:49;;;;;;;21.58;11.32;;;0.30;99.90;;;0.12;89.20;102117.06;4839127;28;24463;-69
2024/01/12 07:12:11;;;;;;;22.25;11.98;;;0.30;99.90;;;0.15;88.88;102122.19;4837545;28;24863;-68
2024/01/12 07:14:33;;;;;;;22.08;11.10;;;0.30;99.90;;;0.17;88.73;102123.84;4843159;28;24499;-68
2024/01/12 07:16:56;;;;;;;21.27;11.57;;;0.40;99.90;;;0.16;88.43;102129.00;4839986;28;24484;-68
2024/01/12 07:19:18;;;;;;;19.48;10.77;;;0.40;99.90;;;0.18;88.83;102125.56;4836251;28;24993;-71
2024/01/12 07:21:40;;;;;;;19.67;10.57;;;0.40;99.90;;;0.18;88.92;102128.13;4840058;28;24435;-70
2024/01/12 07:24:04;;;;;;;20.73;11.00;;;0.40;99.90;;;0.23;89.09;102133.25;4839217;28;24550;-70
2024/01/12 07:26:26;;;;;;;19.63;10.93;;;0.40;99.90;;;0.24;89.24;102137.50;4838864;28;24518;-69
2024/01/12 07:28:48;;;;;;;21.85;11.50;;;0.40;99.90;;;0.25;88.78;102132.38;4820968;28;24428;-70
2024/01/12 07:31:10;;;;;;;21.20;11.52;;;0.40;99.90;;;0.26;88.44;102135.78;4835512;28;25268;-73
2024/01/12 07:33:32;;;;;;;21.00;11.00;;;0.50;99.90;;;0.28;87.94;102141.78;4842969;28;24798;-71
2024/01/12 07:35:55;;;;;;;20.95;11.15;;;0.40;99.90;;;0.22;88.57;102144.38;4839469;28;24528;-71
2024/01/12 07:38:18;;;;;;;19.00;10.50;;;0.40;99.90;;;0.27;88.54;102150.34;4842350;28;24805;-68
2024/01/12 07:40:40;;;;;;;21.75;10.20;;;0.40;99.90;;;0.28;88.40;102149.50;4846854;28;24454;-68
2024/01/12 07:43:03;;;;;;;20.75;10.70;;;0.50;99.90;;;0.30;88.53;102142.63;4835765;28;24550;-68
2024/01/12 07:45:25;;;;;;;21.00;10.45;;;0.40;99.90;;;0.33;88.46;102140.88;4832239;28;24455;-69
2024/01/12 07:47:47;;;;;;;20.55;10.60;;;0.50;99.90;;;0.33;88.45;102151.16;4841086;28;24643;-67
2024/01/12 07:50:09;;;;;;;19.35;10.07;;;0.50;99.90;;;0.37;88.50;102141.72;4836743;28;24862;-68
2024/01/12 07:52:32;;;;;;;17.95;9.30;;;0.50;99.90;;;0.36;88.29;102140.00;4839188;28;24443;-68
2024/01/12 07:54:54;;;;;;;17.67;9.40;;;0.50;99.90;;;0.39;88.29;102157.94;4823823;28;24520;-67
2024/01/12 07:57:16;;;;;;;19.55;10.45;;;0.50;99.90;;;0.37;88.74;102155.41;4837423;28;24459;-68
2024/01/12 07:59:37;;;;;;;16.27;9.30;;;0.50;99.90;;;0.41;88.81;102156.22;4837106;28;24531;-66
2024/01/12 08:02:01;;;;;;;15.55;9.00;;;0.60;99.90;;;0.42;88.46;102166.50;4838568;28;24424;-67
2024/01/12 08:04:23;;;;;;;16.55;8.25;;;0.60;99.90;;;0.41;88.35;102164.78;4831623;28;24503;-69
2024/01/12 08:06:45;;;;;;;15.90;8.50;;;0.60;99.90;;;0.41;88.15;102163.94;4841276;28;24456;-70
2024/01/12 08:09:07;;;;;;;12.80;7.82;;;0.60;99.90;;;0.43;87.96;102169.91;4842549;28;24439;-68
2024/01/12 08:11:29;;;;;;;15.07;8.02;;;0.60;99.90;;;0.42;88.11;102171.66;4841245;28;24526;-68
2024/01/12 08:14:01;;;;;;;14.07;7.78;;;0.60;99.90;;;0.38;88.19;102177.66;4841101;28;24535;-73
2024/01/12 08:16:23;;;;;;;11.40;7.00;;;0.60;99.90;;;0.22;88.44;102168.31;4838577;28;25162;-68
2024/01/12 08:18:45;;;;;;;11.20;6.82;;;0.50;99.90;;;0.21;88.58;102171.78;4836313;28;24494;-67
2024/01/12 08:21:07;;;;;;;13.93;6.73;;;0.40;99.90;;;0.17;88.63;102169.22;4837428;28;24878;-68
2024/01/12 08:23:29;;;;;;;12.18;6.63;;;0.40;99.90;;;0.23;88.66;102176.88;4835670;28;24448;-68
2024/01/12 08:25:51;;;;;;;12.27;7.00;;;0.40;99.90;;;0.02;89.66;102169.28;4846574;28;24439;-70
2024/01/12 08:28:13;;;;;;;13.55;6.90;;;0.30;99.90;;;0.05;89.84;102166.69;4837168;28;24526;-69
2024/01/12 08:30:35;;;;;;;10.57;6.47;;;0.30;99.90;;;-0.03;90.18;102162.47;4835759;28;24451;-68
2024/01/12 08:32:57;;;;;;;11.70;6.68;;;0.20;99.90;;;0.02;90.33;102156.47;4836777;28;24436;-68
2024/01/12 08:35:19;;;;;;;10.48;5.85;;;0.30;99.90;;;0.03;89.83;102160.72;4842319;28;24428;-68
2024/01/12 08:37:41;;;;;;;12.15;6.63;;;0.30;99.90;;;-0.12;90.52;102170.19;4836146;28;24510;-69
2024/01/12 08:40:04;;;;;;;10.23;5.97;;;0.20;99.90;;;-0.14;91.05;102169.34;4839344;28;25001;-69
2024/01/12 08:42:26;;;;;;;11.85;6.40;;;0.10;99.90;;;-0.10;90.70;102171.03;4835381;28;24451;-69
2024/01/12 08:44:48;;;;;;;11.20;6.00;;;0.10;99.90;;;-0.01;90.71;102180.41;4839969;28;24543;-68
2024/01/12 08:47:10;;;;;;;11.40;6.50;;;0.20;99.90;;;0.03;90.62;102189.81;4841927;28;24514;-68
2024/01/12 08:49:32;;;;;;;11.10;5.75;;;0.20;99.90;;;0.06;90.40;102178.69;4840174;28;24869;-67
2024/01/12 08:51:54;;;;;;;10.85;5.97;;;0.30;99.90;;;0.04;90.60;102168.44;4839456;28;25100;-71
2024/01/12 08:54:17;;;;;;;10.55;6.00;;;0.30;99.90;;;-0.01;90.82;102176.16;4837167;28;25296;-68
2024/01/12 08:56:39;;;;;;;10.93;6.63;;;0.30;99.90;;;-0.09;91.36;102162.50;4838375;28;24530;-68
2024/01/12 08:59:01;;;;;;;10.23;6.22;;;0.20;99.90;;;0.02;91.32;102159.88;4838503;28;24559;-67
2024/01/12 09:01:24;;;;;;;11.57;6.60;;;0.20;99.90;;;0.08;91.24;102164.13;4827507;28;25305;-68
2024/01/12 09:03:46;;;;;;;11.43;6.77;;;0.20;99.90;;;0.09;91.31;102171.81;4836390;28;24592;-68
2024/01/12 09:06:13;;;;;;;12.38;6.57;;;0.20;99.90;;;0.14;91.37;102172.66;4837479;28;24425;-67
2024/01/12 09:08:35;;;;;;;12.88;5.70;;;0.30;99.90;;;0.01;92.10;102186.41;4838708;28;24506;-68
2024/01/12 09:10:58;;;;;;;9.65;5.80;;;0.30;99.90;;;-0.07;92.48;102185.56;4837385;28;24483;-69
2024/01/12 09:13:20;;;;;;;11.57;6.70;;;0.20;99.90;;;0.05;92.13;102179.53;4839584;28;24452;-69
2024/01/12 09:15:42;;;;;;;14.48;7.68;;;0.30;99.90;;;0.09;92.04;102181.22;4835857;28;24993;-68
2024/01/12 09:18:05;;;;;;;14.05;7.55;;;0.30;99.90;;;0.16;92.16;102182.91;4840763;28;24507;-68
2024/01/12 09:20:27;;;;;;;12.48;6.95;;;0.30;99.90;;;0.14;91.99;102190.63;4836339;28;24537;-67
2024/01/12 09:22:49;;;;;;;12.30;7.15;;;0.40;99.90;;;0.12;92.03;102191.47;4835006;28;25028;-67
2024/01/12 09:25:11;;;;;;;16.50;6.53;;;0.40;99.90;;;0.03;92.35;102196.66;4836863;28;24524;-68
2024/01/12 09:27:33;;;;;;;12.50;6.70;;;0.30;99.90;;;0.02;92.60;102192.38;4839303;28;25005;-68
2024/01/12 09:29:55;;;;;;;11.20;6.70;;;0.30;99.90;;;-0.04;92.91;102194.09;4842679;28;24535;-68
2024/01/12 09:32:17;;;;;;;16.83;8.80;;;0.30;99.90;;;0.03;93.05;102201.78;4835278;28;24962;-68
2024/01/12 09:34:39;;;;;;;15.40;7.70;;;0.20;99.90;;;0.07;93.29;102195.75;4837158;28;24506;-68
2024/01/12 09:37:02;;;;;;;13.13;6.90;;;0.30;99.90;;;0.04;93.22;102198.38;4839385;28;24650;-67
2024/01/12 09:39:24;;;;;;;13.88;7.60;;;0.30;99.90;;;0.11;93.36;102197.50;4832729;28;24596;-69
2024/01/12 09:41:49;;;;;;;15.23;7.70;;;0.30;99.90;;;0.10;93.34;102200.91;4838500;28;24552;-68
2024/01/12 09:44:13;;;;;;;13.73;7.22;;;0.30;99.90;;;0.19;93.48;102208.56;4835312;28;24494;-68
2024/01/12 09:46:55;;;;;;;14.60;8.00;;;0.30;99.90;;;0.25;93.56;102204.25;4820564;28;24451;-68